createdAt,value
2023-01-29T00:01:51.826Z,97324.41
2023-01-29T00:04:18.680Z,97327.69
2023-01-29T00:06:45.038Z,97323.72
2023-01-29T00:09:12.727Z,97324.81
2023-01-29T00:11:39.857Z,97324.28
2023-01-29T00:14:07.012Z,97324.16
2023-01-29T00:16:33.416Z,97325.09
2023-01-29T00:19:01.838Z,97311.22
2023-01-29T00:21:31.043Z,97320.41
2023-01-29T00:23:58.082Z,97322.38
2023-01-29T00:26:24.788Z,97324.59
2023-01-29T00:28:53.711Z,97319.03
2023-01-29T00:31:22.916Z,97321.97
2023-01-29T00:33:49.680Z,97315.63
2023-01-29T00:36:18.412Z,97312.31
2023-01-29T00:38:54.304Z,97313.88
2023-01-29T00:41:40.310Z,97315.88
2023-01-29T00:44:26.349Z,97306.28
2023-01-29T00:46:52.829Z,97312.16
2023-01-29T00:49:19.210Z,97305.59
2023-01-29T00:52:05.548Z,97309.50
2023-01-29T00:54:33.205Z,97307.41
2023-01-29T00:56:59.870Z,97305.72
2023-01-29T00:59:26.248Z,97299.91
2023-01-29T01:02:11.733Z,97301.69
2023-01-29T01:04:38.069Z,97306.97
2023-01-29T01:07:04.543Z,97313.50
2023-01-29T01:09:49.592Z,97321.34
2023-01-29T01:12:15.943Z,97327.34
2023-01-29T01:14:43.183Z,97333.81
2023-01-29T01:17:09.737Z,97338.44
2023-01-29T01:19:36.151Z,97345.97
2023-01-29T01:22:04.809Z,97333.97
2023-01-29T01:24:31.723Z,97339.69
2023-01-29T01:26:58.067Z,97343.47
2023-01-29T01:29:24.554Z,97348.22
2023-01-29T01:31:53.490Z,97361.28
2023-01-29T01:34:20.699Z,97358.09
2023-01-29T01:36:47.016Z,97356.50
2023-01-29T01:39:13.815Z,97359.59
2023-01-29T01:41:40.491Z,97356.25
2023-01-29T01:44:06.879Z,97347.16
2023-01-29T01:46:37.065Z,97349.13
2023-01-29T01:49:11.771Z,97344.59
2023-01-29T01:51:44.943Z,97344.56
2023-01-29T01:54:18.070Z,97343.66
2023-01-29T01:56:50.003Z,97347.91
2023-01-29T01:59:19.576Z,97352.47
2023-01-29T02:01:53.865Z,97350.09
2023-01-29T02:04:42.497Z,97350.97
2023-01-29T02:07:32.709Z,97348.00
2023-01-29T02:10:18.727Z,97360.47
2023-01-29T02:12:45.618Z,97357.69
2023-01-29T02:15:13.033Z,97355.56
2023-01-29T02:17:39.810Z,97358.69
2023-01-29T02:20:17.833Z,97351.66
2023-01-29T02:23:11.932Z,97357.91
2023-01-29T02:26:20.982Z,97347.03
2023-01-29T02:29:22.834Z,97349.72
2023-01-29T02:31:56.135Z,97351.66
2023-01-29T02:34:54.045Z,97356.50
2023-01-29T02:37:27.049Z,97354.84
2023-01-29T02:40:07.821Z,97346.94
2023-01-29T02:42:44.352Z,97344.66
2023-01-29T02:45:19.253Z,97335.41
2023-01-29T02:47:50.548Z,97344.91
2023-01-29T02:50:25.633Z,97339.31
2023-01-29T02:53:02.003Z,97340.59
2023-01-29T02:55:42.444Z,97339.13
2023-01-29T02:58:16.884Z,97331.28
2023-01-29T03:00:46.917Z,97336.53
2023-01-29T03:03:35.568Z,97340.03
2023-01-29T03:06:07.407Z,97344.34
2023-01-29T03:08:49.901Z,97345.81
2023-01-29T03:11:17.929Z,97340.34
2023-01-29T03:14:16.780Z,97347.72
2023-01-29T03:16:50.845Z,97347.81
2023-01-29T03:19:22.494Z,97343.13
2023-01-29T03:22:00.934Z,97342.34
2023-01-29T03:24:49.065Z,97349.13
2023-01-29T03:27:39.478Z,97345.22
2023-01-29T03:30:26.252Z,97348.13
2023-01-29T03:32:53.943Z,97336.50
2023-01-29T03:35:33.523Z,97333.28
2023-01-29T03:38:01.033Z,97336.25
2023-01-29T03:40:35.214Z,97345.56
2023-01-29T03:43:32.316Z,97333.84
2023-01-29T03:46:08.280Z,97334.97
2023-01-29T03:48:59.678Z,97342.19
2023-01-29T03:51:42.526Z,97330.88
2023-01-29T03:54:26.271Z,97328.75
2023-01-29T03:56:57.155Z,97334.78
2023-01-29T03:59:44.384Z,97330.28
2023-01-29T04:02:27.686Z,97323.41
2023-01-29T04:04:59.532Z,97337.53
2023-01-29T04:07:29.579Z,97330.28
2023-01-29T04:10:10.474Z,97326.28
2023-01-29T04:12:50.916Z,97322.50
2023-01-29T04:15:18.919Z,97316.69
2023-01-29T04:17:50.594Z,97321.88
2023-01-29T04:20:17.726Z,97318.19
2023-01-29T04:22:49.500Z,97317.22
2023-01-29T04:25:26.447Z,97316.94
2023-01-29T04:28:16.446Z,97316.81
2023-01-29T04:30:53.189Z,97319.59
2023-01-29T04:33:44.414Z,97312.16
2023-01-29T04:37:02.554Z,97306.44
2023-01-29T04:40:00.913Z,97312.03
2023-01-29T04:42:54.892Z,97307.81
2023-01-29T04:45:47.596Z,97317.75
2023-01-29T04:48:23.518Z,97322.38
2023-01-29T04:51:20.104Z,97321.97
2023-01-29T04:54:06.073Z,97325.31
2023-01-29T04:56:42.840Z,97327.69
2023-01-29T04:59:14.055Z,97319.41
2023-01-29T05:01:40.857Z,97320.00
2023-01-29T05:04:14.051Z,97319.94
2023-01-29T05:06:42.068Z,97335.28
2023-01-29T05:09:09.746Z,97331.53
2023-01-29T05:11:37.441Z,97337.41
2023-01-29T05:14:07.215Z,97340.31
2023-01-29T05:16:42.459Z,97342.88
2023-01-29T05:19:14.796Z,97343.38
2023-01-29T05:21:44.358Z,97345.19
2023-01-29T05:24:17.208Z,97344.50
2023-01-29T05:27:05.572Z,97350.50
2023-01-29T05:29:31.936Z,97354.66
2023-01-29T05:31:58.427Z,97359.91
2023-01-29T05:34:25.040Z,97354.59
2023-01-29T05:36:51.355Z,97358.38
2023-01-29T05:39:17.729Z,97358.16
2023-01-29T05:41:44.164Z,97360.47
2023-01-29T05:44:11.199Z,97363.13
2023-01-29T05:46:38.132Z,97363.03
2023-01-29T05:49:05.301Z,97361.13
2023-01-29T05:51:31.976Z,97363.69
2023-01-29T05:53:58.303Z,97365.97
2023-01-29T05:56:25.345Z,97367.03
2023-01-29T05:58:52.541Z,97362.19
2023-01-29T06:01:21.860Z,97359.00
2023-01-29T06:03:48.301Z,97375.78
2023-01-29T06:06:15.234Z,97369.44
2023-01-29T06:08:41.576Z,97376.03
2023-01-29T06:11:09.928Z,97374.25
2023-01-29T06:13:36.307Z,97375.44
2023-01-29T06:16:07.003Z,97380.91
2023-01-29T06:18:33.703Z,97373.69
2023-01-29T06:21:02.431Z,97382.03
2023-01-29T06:23:29.195Z,97368.94
2023-01-29T06:26:04.007Z,97378.25
2023-01-29T06:28:30.787Z,97380.78
2023-01-29T06:31:08.358Z,97382.72
2023-01-29T06:33:42.992Z,97391.16
2023-01-29T06:36:09.634Z,97389.38
2023-01-29T06:38:35.960Z,97394.03
2023-01-29T06:41:09.328Z,97405.41
2023-01-29T06:43:35.687Z,97405.47
2023-01-29T06:46:02.175Z,97418.41
2023-01-29T06:48:28.540Z,97422.06
2023-01-29T06:50:55.149Z,97418.66
2023-01-29T06:53:22.024Z,97408.56
2023-01-29T06:55:52.780Z,97399.66
2023-01-29T06:58:19.485Z,97405.13
2023-01-29T07:00:45.863Z,97397.97
2023-01-29T07:03:12.356Z,97397.94
2023-01-29T07:05:38.908Z,97402.53
2023-01-29T07:08:05.860Z,97392.88
2023-01-29T07:10:32.222Z,97389.41
2023-01-29T07:12:59.399Z,97382.59
2023-01-29T07:15:25.781Z,97382.03
2023-01-29T07:17:57.049Z,97386.56
2023-01-29T07:20:25.361Z,97389.72
2023-01-29T07:22:51.718Z,97391.97
2023-01-29T07:25:18.063Z,97391.63
2023-01-29T07:27:44.382Z,97391.97
2023-01-29T07:30:11.382Z,97386.66
2023-01-29T07:32:38.020Z,97392.44
2023-01-29T07:35:04.739Z,97386.81
2023-01-29T07:37:31.083Z,97389.75
2023-01-29T07:39:57.406Z,97390.28
2023-01-29T07:42:23.844Z,97390.69
2023-01-29T07:44:50.356Z,97390.28
2023-01-29T07:47:17.367Z,97390.84
2023-01-29T07:49:43.743Z,97400.78
2023-01-29T07:52:10.084Z,97395.44
2023-01-29T07:54:36.499Z,97398.53
2023-01-29T07:57:03.094Z,97401.53
2023-01-29T07:59:29.474Z,97410.44
2023-01-29T08:01:55.811Z,97407.53
2023-01-29T08:04:22.166Z,97403.00
2023-01-29T08:06:48.516Z,97396.25
2023-01-29T08:09:14.844Z,97393.22
2023-01-29T08:11:41.224Z,97393.50
2023-01-29T08:14:09.176Z,97396.56
2023-01-29T08:16:35.738Z,97408.78
2023-01-29T08:19:02.755Z,97402.63
2023-01-29T08:21:29.497Z,97389.16
2023-01-29T08:23:55.850Z,97391.97
2023-01-29T08:26:22.403Z,97406.94
2023-01-29T08:28:48.779Z,97406.88
2023-01-29T08:31:16.205Z,97403.03
2023-01-29T08:33:42.539Z,97399.75
2023-01-29T08:36:09.608Z,97402.69
2023-01-29T08:38:36.112Z,97402.69
2023-01-29T08:41:02.503Z,97401.06
2023-01-29T08:43:28.866Z,97408.06
2023-01-29T08:45:55.244Z,97412.72
2023-01-29T08:48:21.605Z,97411.91
2023-01-29T08:50:48.025Z,97418.59
2023-01-29T08:53:14.397Z,97424.88
2023-01-29T08:55:40.933Z,97423.41
2023-01-29T08:58:10.021Z,97423.75
2023-01-29T09:00:37.190Z,97421.66
2023-01-29T09:03:04.485Z,97422.50
2023-01-29T09:05:30.920Z,97413.81
2023-01-29T09:07:57.951Z,97413.25
2023-01-29T09:10:24.481Z,97415.16
2023-01-29T09:12:50.914Z,97418.44
2023-01-29T09:15:17.683Z,97429.09
2023-01-29T09:17:44.211Z,97431.59
2023-01-29T09:20:11.101Z,97424.88
2023-01-29T09:22:37.475Z,97436.38
2023-01-29T09:25:04.299Z,97443.09
2023-01-29T09:27:30.645Z,97444.00
2023-01-29T09:29:57.174Z,97452.19
2023-01-29T09:35:09.888Z,97443.00
2023-01-29T09:37:36.417Z,97443.16
2023-01-29T09:40:02.793Z,97439.44
2023-01-29T09:42:44.041Z,97445.50
2023-01-29T09:45:15.899Z,97438.25
2023-01-29T09:47:42.631Z,97451.84
2023-01-29T09:50:20.465Z,97447.06
2023-01-29T09:53:10.695Z,97449.66
2023-01-29T09:55:42.377Z,97453.19
2023-01-29T09:58:18.479Z,97453.31
2023-01-29T10:01:15.975Z,97451.50
2023-01-29T10:04:11.920Z,97448.63
2023-01-29T10:06:59.795Z,97453.59
2023-01-29T10:09:57.340Z,97452.25
2023-01-29T10:12:53.504Z,97458.63
2023-01-29T10:15:28.287Z,97460.75
2023-01-29T10:18:23.337Z,97458.91
2023-01-29T10:20:49.996Z,97458.84
2023-01-29T10:23:25.110Z,97467.59
2023-01-29T10:25:52.154Z,97466.72
2023-01-29T10:28:25.426Z,97469.91
2023-01-29T10:30:59.807Z,97468.41
2023-01-29T10:33:54.266Z,97465.63
2023-01-29T10:36:53.820Z,97466.63
2023-01-29T10:39:22.524Z,97463.50
2023-01-29T10:42:19.169Z,97455.53
2023-01-29T10:44:54.308Z,97466.59
2023-01-29T10:47:32.208Z,97460.38
2023-01-29T10:50:13.837Z,97450.22
2023-01-29T10:52:50.694Z,97440.53
2023-01-29T10:55:30.481Z,97448.59
2023-01-29T10:58:27.288Z,97435.94
2023-01-29T11:00:53.701Z,97438.28
2023-01-29T11:03:29.739Z,97428.97
2023-01-29T11:06:05.557Z,97428.22
2023-01-29T11:08:40.073Z,97426.44
2023-01-29T11:11:21.835Z,97432.19
2023-01-29T11:14:02.708Z,97430.44
2023-01-29T11:16:30.263Z,97433.19
2023-01-29T11:19:01.129Z,97427.56
2023-01-29T11:21:29.123Z,97415.59
2023-01-29T11:24:15.283Z,97413.31
2023-01-29T11:26:42.995Z,97417.53
2023-01-29T11:29:28.780Z,97412.09
2023-01-29T11:31:56.717Z,97403.06
2023-01-29T11:34:29.136Z,97403.78
2023-01-29T11:37:04.935Z,97404.31
2023-01-29T11:39:32.796Z,97402.09
2023-01-29T11:42:04.539Z,97400.50
2023-01-29T11:44:40.842Z,97395.16
2023-01-29T11:47:20.540Z,97401.84
2023-01-29T11:49:48.759Z,97399.50
2023-01-29T11:52:18.739Z,97391.72
2023-01-29T11:54:58.665Z,97402.78
2023-01-29T11:57:38.681Z,97396.44
2023-01-29T12:00:17.262Z,97393.31
2023-01-29T12:02:46.776Z,97393.03
2023-01-29T12:05:22.033Z,97386.91
2023-01-29T12:08:00.241Z,97388.13
2023-01-29T12:10:37.204Z,97396.31
2023-01-29T12:13:20.841Z,97388.97
2023-01-29T12:15:48.566Z,97388.66
2023-01-29T12:18:39.921Z,97383.34
2023-01-29T12:21:18.140Z,97382.66
2023-01-29T12:23:57.620Z,97389.81
2023-01-29T12:26:34.778Z,97385.69
2023-01-29T12:29:08.336Z,97386.44
2023-01-29T12:32:07.793Z,97377.75
2023-01-29T12:34:39.155Z,97373.47
2023-01-29T12:37:35.775Z,97376.53
2023-01-29T12:40:02.408Z,97365.97
2023-01-29T12:42:29.853Z,97374.06
2023-01-29T12:45:08.584Z,97370.25
2023-01-29T12:47:43.699Z,97373.06
2023-01-29T12:50:28.120Z,97364.00
2023-01-29T12:53:38.860Z,97369.94
2023-01-29T12:56:23.569Z,97366.19
2023-01-29T12:58:54.209Z,97369.59
2023-01-29T13:01:33.092Z,97367.19
2023-01-29T13:04:30.667Z,97367.88
2023-01-29T13:07:12.168Z,97354.88
2023-01-29T13:09:43.384Z,97362.44
2023-01-29T13:12:16.910Z,97360.50
2023-01-29T13:14:54.777Z,97355.78
2023-01-29T13:17:30.279Z,97353.63
2023-01-29T13:20:03.857Z,97360.28
2023-01-29T13:22:36.679Z,97349.72
2023-01-29T13:25:05.659Z,97347.38
2023-01-29T13:27:35.267Z,97346.53
2023-01-29T13:30:02.241Z,97342.09
2023-01-29T13:32:35.540Z,97344.25
2023-01-29T13:35:12.711Z,97342.97
2023-01-29T13:37:47.506Z,97337.66
2023-01-29T13:40:25.324Z,97334.72
2023-01-29T13:42:55.545Z,97332.78
2023-01-29T13:45:30.321Z,97336.75
2023-01-29T13:48:21.667Z,97331.56
2023-01-29T13:50:50.361Z,97325.56
2023-01-29T13:53:40.161Z,97318.97
2023-01-29T13:56:34.619Z,97323.25
2023-01-29T13:59:03.666Z,97318.13
2023-01-29T14:01:48.315Z,97316.38
2023-01-29T14:04:28.294Z,97320.47
2023-01-29T14:06:55.973Z,97305.00
2023-01-29T14:09:40.599Z,97307.03
2023-01-29T14:12:22.150Z,97307.50
2023-01-29T14:14:48.807Z,97297.44
2023-01-29T14:17:17.111Z,97311.41
2023-01-29T14:19:51.873Z,97313.69
2023-01-29T14:22:27.466Z,97314.56
2023-01-29T14:24:57.330Z,97302.47
2023-01-29T14:27:27.546Z,97295.03
2023-01-29T14:30:06.670Z,97289.91
2023-01-29T14:32:33.552Z,97287.19
2023-01-29T14:35:03.289Z,97295.38
2023-01-29T14:37:34.414Z,97289.75
2023-01-29T14:40:13.045Z,97294.41
2023-01-29T14:42:47.709Z,97285.31
2023-01-29T14:45:30.619Z,97293.69
2023-01-29T14:48:18.099Z,97291.16
2023-01-29T14:50:53.307Z,97295.56
2023-01-29T14:53:31.749Z,97288.53
2023-01-29T14:56:10.284Z,97292.03
2023-01-29T14:58:41.616Z,97290.44
2023-01-29T15:01:19.498Z,97285.78
2023-01-29T15:03:49.829Z,97284.41
2023-01-29T15:06:27.250Z,97283.31
2023-01-29T15:09:04.021Z,97278.28
2023-01-29T15:11:37.638Z,97285.06
2023-01-29T15:14:23.750Z,97287.28
2023-01-29T15:17:00.549Z,97293.69
2023-01-29T15:19:35.849Z,97296.41
2023-01-29T15:22:20.858Z,97293.50
2023-01-29T15:25:02.184Z,97302.81
2023-01-29T15:27:28.899Z,97299.88
2023-01-29T15:30:07.973Z,97297.63
2023-01-29T15:32:37.477Z,97299.28
2023-01-29T15:35:36.232Z,97298.78
2023-01-29T15:38:18.020Z,97302.75
2023-01-29T15:41:02.080Z,97297.28
2023-01-29T15:43:49.249Z,97303.00
2023-01-29T15:46:24.356Z,97301.16
2023-01-29T15:48:52.517Z,97304.66
2023-01-29T15:51:22.449Z,97307.63
2023-01-29T15:53:58.184Z,97308.81
2023-01-29T15:56:28.780Z,97309.09
2023-01-29T15:58:58.765Z,97302.66
2023-01-29T16:01:29.066Z,97300.69
2023-01-29T16:03:59.346Z,97311.97
2023-01-29T16:06:26.762Z,97305.63
2023-01-29T16:08:54.555Z,97317.81
2023-01-29T16:11:21.304Z,97318.69
2023-01-29T16:13:50.413Z,97316.34
2023-01-29T16:16:21.659Z,97334.63
2023-01-29T16:18:59.979Z,97328.41
2023-01-29T16:21:43.426Z,97328.44
2023-01-29T16:24:22.068Z,97330.69
2023-01-29T16:26:51.321Z,97346.03
2023-01-29T16:29:23.510Z,97344.75
2023-01-29T16:32:00.394Z,97355.53
2023-01-29T16:34:31.735Z,97364.75
2023-01-29T16:37:00.444Z,97369.75
2023-01-29T16:39:36.666Z,97369.63
2023-01-29T16:42:19.908Z,97370.25
2023-01-29T16:45:26.304Z,97372.66
2023-01-29T16:48:25.848Z,97377.78
2023-01-29T16:51:04.013Z,97372.75
2023-01-29T16:53:30.389Z,97366.94
2023-01-29T16:56:02.608Z,97372.00
2023-01-29T16:58:30.213Z,97373.66
2023-01-29T17:01:01.108Z,97377.91
2023-01-29T17:03:30.258Z,97377.25
2023-01-29T17:05:56.735Z,97377.34
2023-01-29T17:08:31.679Z,97376.31
2023-01-29T17:10:59.144Z,97374.16
2023-01-29T17:13:30.407Z,97383.88
2023-01-29T17:16:04.817Z,97383.66
2023-01-29T17:18:31.430Z,97382.44
2023-01-29T17:20:57.950Z,97383.63
2023-01-29T17:23:24.298Z,97393.75
2023-01-29T17:25:51.688Z,97396.50
2023-01-29T17:28:18.510Z,97397.34
2023-01-29T17:30:53.332Z,97390.00
2023-01-29T17:33:25.687Z,97393.81
2023-01-29T17:35:52.752Z,97393.03
2023-01-29T17:38:26.106Z,97392.63
2023-01-29T17:41:05.473Z,97393.75
2023-01-29T17:43:32.008Z,97392.66
2023-01-29T17:45:58.363Z,97394.53
2023-01-29T17:48:29.317Z,97392.53
2023-01-29T17:50:58.654Z,97399.72
2023-01-29T17:53:28.487Z,97414.44
2023-01-29T17:55:59.436Z,97410.44
2023-01-29T17:58:26.837Z,97408.75
2023-01-29T18:00:54.261Z,97413.69
2023-01-29T18:03:22.233Z,97408.16
2023-01-29T18:05:49.727Z,97411.69
2023-01-29T18:08:18.988Z,97405.75
2023-01-29T18:10:46.508Z,97410.25
2023-01-29T18:13:13.393Z,97406.34
2023-01-29T18:15:39.970Z,97406.00
2023-01-29T18:18:10.313Z,97403.16
2023-01-29T18:20:38.363Z,97398.28
2023-01-29T18:23:06.241Z,97397.81
2023-01-29T18:25:34.129Z,97391.91
2023-01-29T18:28:00.997Z,97392.53
2023-01-29T18:30:27.689Z,97387.06
2023-01-29T18:32:54.360Z,97391.19
2023-01-29T18:35:21.424Z,97384.84
2023-01-29T18:37:47.806Z,97386.28
2023-01-29T18:40:17.025Z,97386.97
2023-01-29T18:42:45.007Z,97390.56
2023-01-29T18:45:12.253Z,97394.97
2023-01-29T18:47:39.379Z,97392.06
2023-01-29T18:50:07.666Z,97389.72
2023-01-29T18:52:34.316Z,97386.50
2023-01-29T18:55:03.363Z,97390.28
2023-01-29T18:58:28.307Z,97388.66
2023-01-29T19:00:16.452Z,97390.00
2023-01-29T19:02:44.865Z,97384.94
2023-01-29T19:05:11.194Z,97392.34
2023-01-29T19:07:37.663Z,97404.22
2023-01-29T19:10:06.723Z,97398.25
2023-01-29T19:12:34.185Z,97400.44
2023-01-29T19:15:00.963Z,97405.13
2023-01-29T19:17:27.652Z,97400.72
2023-01-29T19:19:56.303Z,97409.34
2023-01-29T19:22:22.644Z,97399.47
2023-01-29T19:24:49.000Z,97407.31
2023-01-29T19:27:15.351Z,97398.97
2023-01-29T19:29:41.724Z,97394.97
2023-01-29T19:32:09.825Z,97393.09
2023-01-29T19:34:36.697Z,97395.53
2023-01-29T19:37:03.581Z,97390.44
2023-01-29T19:39:33.613Z,97394.06
2023-01-29T19:42:01.006Z,97396.03
2023-01-29T19:44:27.733Z,97398.94
2023-01-29T19:46:54.057Z,97394.94
2023-01-29T19:49:20.424Z,97395.63
2023-01-29T19:51:46.831Z,97404.78
2023-01-29T19:54:13.148Z,97401.50
2023-01-29T19:56:39.604Z,97403.59
2023-01-29T19:59:07.242Z,97403.81
2023-01-29T20:01:33.980Z,97410.66
2023-01-29T20:04:00.374Z,97405.50
2023-01-29T20:06:31.043Z,97409.47
2023-01-29T20:08:57.979Z,97413.44
2023-01-29T20:11:24.971Z,97417.41
2023-01-29T20:13:52.148Z,97407.31
2023-01-29T20:16:19.520Z,97407.50
2023-01-29T20:18:46.087Z,97411.03
2023-01-29T20:21:20.266Z,97403.88
2023-01-29T20:23:49.251Z,97409.69
2023-01-29T20:26:17.352Z,97404.91
2023-01-29T20:28:46.202Z,97408.78
2023-01-29T20:31:12.664Z,97414.09
2023-01-29T20:33:39.757Z,97412.19
2023-01-29T20:36:09.138Z,97418.63
2023-01-29T20:38:36.434Z,97416.69
2023-01-29T20:41:07.946Z,97415.66
2023-01-29T20:43:35.337Z,97419.03
2023-01-29T20:46:01.943Z,97409.34
2023-01-29T20:48:28.552Z,97410.84
2023-01-29T20:50:54.956Z,97411.06
2023-01-29T20:53:21.297Z,97405.41
2023-01-29T20:55:47.848Z,97406.28
2023-01-29T20:58:14.319Z,97408.69
2023-01-29T21:00:41.253Z,97408.63
2023-01-29T21:03:07.731Z,97410.47
2023-01-29T21:05:34.048Z,97403.78
2023-01-29T21:08:00.391Z,97414.00
2023-01-29T21:10:26.736Z,97420.44
2023-01-29T21:12:54.492Z,97415.13
2023-01-29T21:15:21.055Z,97412.31
2023-01-29T21:17:47.964Z,97402.53
2023-01-29T21:20:14.768Z,97407.41
2023-01-29T21:22:43.847Z,97412.53
2023-01-29T21:25:11.405Z,97403.47
2023-01-29T21:27:37.778Z,97415.06
2023-01-29T21:30:04.555Z,97399.38
2023-01-29T21:32:30.959Z,97397.16
2023-01-29T21:34:57.515Z,97398.69
2023-01-29T21:37:24.148Z,97392.84
2023-01-29T21:39:50.481Z,97391.44
2023-01-29T21:42:35.460Z,97392.63
2023-01-29T21:45:01.845Z,97398.25
2023-01-29T21:47:28.195Z,97396.00
2023-01-29T21:49:54.573Z,97394.38
2023-01-29T21:52:20.921Z,97394.91
2023-01-29T21:54:49.169Z,97393.00
2023-01-29T21:57:16.353Z,97387.53
2023-01-29T21:59:43.431Z,97382.53
2023-01-29T22:02:14.674Z,97390.06
2023-01-29T22:04:42.207Z,97391.53
2023-01-29T22:07:10.372Z,97384.28
2023-01-29T22:09:37.172Z,97385.59
2023-01-29T22:12:05.391Z,97379.19
2023-01-29T22:14:31.966Z,97383.72
2023-01-29T22:16:58.507Z,97378.72
2023-01-29T22:19:29.276Z,97373.81
2023-01-29T22:21:56.080Z,97367.94
2023-01-29T22:24:22.523Z,97373.56
2023-01-29T22:26:49.602Z,97377.53
2023-01-29T22:29:19.461Z,97365.53
2023-01-29T22:31:46.311Z,97371.88
2023-01-29T22:34:14.103Z,97375.84
2023-01-29T22:36:40.900Z,97370.09
2023-01-29T22:39:08.307Z,97362.06
2023-01-29T22:41:34.780Z,97355.88
2023-01-29T22:44:01.721Z,97353.66
2023-01-29T22:46:28.202Z,97363.81
2023-01-29T22:48:54.838Z,97350.66
2023-01-29T22:51:21.272Z,97349.16
2023-01-29T22:53:52.922Z,97345.03
2023-01-29T22:56:21.480Z,97338.97
2023-01-29T22:58:52.099Z,97330.63
2023-01-29T23:01:23.665Z,97335.97
2023-01-29T23:03:50.219Z,97331.97
2023-01-29T23:06:18.242Z,97330.88
2023-01-29T23:08:44.710Z,97337.59
2023-01-29T23:11:15.839Z,97331.25
2023-01-29T23:13:48.359Z,97324.03
2023-01-29T23:16:16.708Z,97323.94
2023-01-29T23:18:44.472Z,97313.72
2023-01-29T23:21:11.329Z,97316.13
2023-01-29T23:23:38.436Z,97320.91
2023-01-29T23:26:25.678Z,97313.97
2023-01-29T23:28:52.075Z,97330.81
2023-01-29T23:31:18.532Z,97317.91
2023-01-29T23:33:45.063Z,97318.84
2023-01-29T23:36:11.518Z,97323.06
2023-01-29T23:38:38.396Z,97311.88
2023-01-29T23:41:04.861Z,97312.94
2023-01-29T23:43:31.613Z,97305.25
2023-01-29T23:45:58.359Z,97310.22
2023-01-29T23:48:25.041Z,97309.91
2023-01-29T23:50:51.534Z,97299.47
2023-01-29T23:53:18.337Z,97294.72
2023-01-29T23:55:58.858Z,97295.47
2023-01-29T23:58:26.164Z,97294.34
